Sultan Abdul Aziz Shah International Airport Subang MY
ICAO: WMSA
IATA: SZB
Category: Medium
Scheduled Services: Yes

Elevation: 90 ft
TransAlt. 11000 ft.

Airport Communications:
LUMPUR DIRECTOR:125.1
LUMPUR RDO:347
LUMPUR APP/CON:132.8
SUBANG INFO:127.6
LUMPUR DELIVERY:126
SUBANG GND:121.9
LUMPUR:126.1
AIR FORCE GND:125.2
SUBANG TWR:118.2

WMSA Zoom In..

Runways:

(A) RW 15 length 12402 ft width 148 ft
ILS 110.30 / hdg 149

(B) RW 33 length 12402 ft width 148 ft
ILS 109.90 / hdg 329

Location; WMSA
Day. 05 / Time. 15.00 Zulu
* QNH: 1008
* Temperature: 25° c. 77°f.
* Wind from: VRB° Speed 01 kn.
Dewpoint: 24° c.
Visibility: 10 km or more.
Clouds: Few 2600 ft.

WMSA 051500Z VRB01KT 9999 FEW026 25/24 Q1008

Going to: --> -->


Wind From VRB°
Speed 01 kn.

 
 
jpsmedia worldairports.se 2020   terms of use